Time;durP1;ratioP1;P1;durP2;ratioP2;P2;SDS_P1;SDS_P2;PMS_P1;PMS_P2;Temp;Humidity;BMP_temperature;BMP_pressure;BME280_temperature;BME280_humidity;BME280_pressure;Samples;Min_cycle;Max_cycle;Signal;HPM_P1;HPM_P2
2022/04/16 00:02:27;;;;;;;14.82;11.07;;;;;;;;;;5046488;28;20557;-76
2022/04/16 00:04:53;;;;;;;14.13;10.90;;;;;;;;;;5053462;28;20025;-80
2022/04/16 00:07:19;;;;;;;15.48;10.95;;;;;;;;;;5052639;28;20039;-80
2022/04/16 00:09:45;;;;;;;16.30;10.88;;;;;;;;;;5052765;28;20044;-78
2022/04/16 00:12:11;;;;;;;13.82;10.32;;;;;;;;;;5052594;28;20036;-80
2022/04/16 00:14:38;;;;;;;14.45;10.70;;;;;;;;;;5053110;28;20080;-80
2022/04/16 00:17:04;;;;;;;16.35;10.85;;;;;;;;;;5053387;28;20040;-81
2022/04/16 00:19:31;;;;;;;15.38;11.18;;;;;;;;;;5053306;28;20025;-80
2022/04/16 00:21:59;;;;;;;19.10;12.60;;;;;;;;;;5049593;28;20024;-73
2022/04/16 00:24:26;;;;;;;14.88;10.85;;;;;;;;;;5046469;28;20559;-75
2022/04/16 00:26:52;;;;;;;16.88;10.93;;;;;;;;;;5053305;28;20029;-77
2022/04/16 00:29:18;;;;;;;16.73;11.10;;;;;;;;;;5053041;28;20458;-77
2022/04/16 00:31:47;;;;;;;17.40;11.07;;;;;;;;;;5050879;28;20394;-70
2022/04/16 00:34:14;;;;;;;15.43;11.18;;;;;;;;;;5050856;28;20036;-80
2022/04/16 00:36:44;;;;;;;18.75;12.20;;;;;;;;;;5052417;28;20036;-81
2022/04/16 00:39:10;;;;;;;15.70;11.88;;;;;;;;;;5051917;28;20037;-76
2022/04/16 00:41:36;;;;;;;15.88;12.02;;;;;;;;;;5052720;28;20083;-78
2022/04/16 00:44:02;;;;;;;18.45;12.13;;;;;;;;;;5052092;28;20063;-79
2022/04/16 00:46:28;;;;;;;19.55;12.77;;;;;;;;;;5052858;28;20033;-77
2022/04/16 00:48:54;;;;;;;16.20;11.48;;;;;;;;;;5053454;28;20100;-76
2022/04/16 00:51:21;;;;;;;16.33;11.07;;;;;;;;;;5052798;28;20033;-81
2022/04/16 00:53:47;;;;;;;15.82;11.00;;;;;;;;;;5051053;28;20382;-80
2022/04/16 00:56:13;;;;;;;17.58;11.65;;;;;;;;;;5052352;28;20392;-80
2022/04/16 00:58:40;;;;;;;12.07;9.73;;;;;;;;;;5052821;28;20031;-80
2022/04/16 01:01:07;;;;;;;15.13;9.90;;;;;;;;;;5053537;28;20105;-79
2022/04/16 01:03:33;;;;;;;14.23;10.02;;;;;;;;;;5050939;28;20435;-78
2022/04/16 01:05:59;;;;;;;15.63;10.05;;;;;;;;;;5052416;28;20028;-72
2022/04/16 01:08:25;;;;;;;12.43;9.93;;;;;;;;;;5049799;28;20033;-78
2022/04/16 01:10:51;;;;;;;14.05;9.45;;;;;;;;;;5059744;28;20025;-78
2022/04/16 01:13:18;;;;;;;12.52;9.52;;;;;;;;;;5070549;28;20111;-77
2022/04/16 01:15:44;;;;;;;13.13;9.20;;;;;;;;;;5052018;28;20032;-80
2022/04/16 01:18:12;;;;;;;13.80;9.38;;;;;;;;;;5052514;28;20043;-81
2022/04/16 01:20:39;;;;;;;13.02;9.50;;;;;;;;;;5052464;28;20029;-73
2022/04/16 01:23:05;;;;;;;12.50;8.60;;;;;;;;;;5050499;28;20502;-77
2022/04/16 01:25:33;;;;;;;12.00;8.57;;;;;;;;;;5052522;28;20032;-77
2022/04/16 01:28:01;;;;;;;11.35;8.95;;;;;;;;;;5052789;28;20433;-80
2022/04/16 01:30:27;;;;;;;14.77;8.45;;;;;;;;;;5052243;28;20099;-78
2022/04/16 01:32:54;;;;;;;11.88;8.75;;;;;;;;;;5051064;28;20108;-76
2022/04/16 01:35:20;;;;;;;14.38;8.07;;;;;;;;;;5052215;28;20032;-77
2022/04/16 01:37:50;;;;;;;10.30;8.25;;;;;;;;;;5049154;28;20037;-80
2022/04/16 01:40:16;;;;;;;12.40;8.50;;;;;;;;;;5052694;28;20028;-80
2022/04/16 01:42:45;;;;;;;14.00;8.52;;;;;;;;;;5052147;28;20070;-81
2022/04/16 01:45:11;;;;;;;10.70;7.70;;;;;;;;;;5052294;28;20033;-80
2022/04/16 01:47:38;;;;;;;14.90;8.75;;;;;;;;;;5052908;28;20178;-80
2022/04/16 01:50:08;;;;;;;11.50;8.35;;;;;;;;;;5052729;28;20021;-78
2022/04/16 01:52:35;;;;;;;11.43;8.52;;;;;;;;;;5051187;28;20032;-80
2022/04/16 01:55:01;;;;;;;13.40;9.15;;;;;;;;;;5054151;28;20033;-78
2022/04/16 01:57:27;;;;;;;14.63;8.93;;;;;;;;;;5056066;28;20393;-81
2022/04/16 01:59:54;;;;;;;13.25;9.35;;;;;;;;;;5056088;28;20117;-80
2022/04/16 02:02:20;;;;;;;10.52;8.45;;;;;;;;;;5052339;28;20036;-79
2022/04/16 02:04:46;;;;;;;13.20;9.10;;;;;;;;;;5055876;28;20021;-79
2022/04/16 02:07:13;;;;;;;12.95;8.57;;;;;;;;;;5054601;28;20107;-69
2022/04/16 02:09:40;;;;;;;13.02;8.98;;;;;;;;;;5055804;28;20052;-81
2022/04/16 02:12:06;;;;;;;13.05;9.32;;;;;;;;;;5055843;28;20025;-79
2022/04/16 02:14:32;;;;;;;13.82;9.75;;;;;;;;;;5055969;28;20032;-81
2022/04/16 02:16:59;;;;;;;12.00;9.65;;;;;;;;;;5055549;28;20037;-81
2022/04/16 02:19:25;;;;;;;12.60;9.45;;;;;;;;;;5055415;28;20078;-76
2022/04/16 02:21:52;;;;;;;12.88;9.82;;;;;;;;;;5053673;28;20075;-81
2022/04/16 02:24:18;;;;;;;11.40;9.13;;;;;;;;;;5055378;28;20452;-82
2022/04/16 02:26:47;;;;;;;14.90;9.80;;;;;;;;;;5054930;28;20029;-70
2022/04/16 02:29:13;;;;;;;11.43;9.70;;;;;;;;;;5055444;28;20025;-80
2022/04/16 02:31:39;;;;;;;11.55;9.77;;;;;;;;;;5053461;28;20071;-72
2022/04/16 02:34:07;;;;;;;13.45;10.13;;;;;;;;;;5055354;28;20383;-79
2022/04/16 02:36:33;;;;;;;14.88;10.18;;;;;;;;;;5054269;28;20399;-69
2022/04/16 02:38:59;;;;;;;13.43;10.32;;;;;;;;;;5053495;28;20060;-79
2022/04/16 02:41:25;;;;;;;12.13;9.90;;;;;;;;;;5055149;28;20103;-77
2022/04/16 02:43:54;;;;;;;14.23;10.77;;;;;;;;;;5055103;28;20033;-81
2022/04/16 02:49:08;;;;;;;13.18;10.30;;;;;;;;;;5045931;28;20044;-81
2022/04/16 02:51:34;;;;;;;15.88;9.73;;;;;;;;;;5054231;28;20025;-78
2022/04/16 02:54:00;;;;;;;14.23;10.73;;;;;;;;;;5054484;28;20109;-81
2022/04/16 02:56:26;;;;;;;13.40;10.68;;;;;;;;;;5054802;28;20079;-74
2022/04/16 02:58:52;;;;;;;15.55;11.27;;;;;;;;;;5054415;28;20037;-79
2022/04/16 03:01:19;;;;;;;15.93;10.85;;;;;;;;;;5053146;28;20092;-80
2022/04/16 03:03:45;;;;;;;14.18;11.13;;;;;;;;;;5051025;28;20482;-73
2022/04/16 03:06:11;;;;;;;13.88;10.57;;;;;;;;;;5054560;28;20386;-70
2022/04/16 03:08:39;;;;;;;18.95;11.95;;;;;;;;;;5052590;28;20447;-76
2022/04/16 03:11:05;;;;;;;14.77;11.73;;;;;;;;;;5054268;28;20021;-78
2022/04/16 03:13:34;;;;;;;14.18;11.82;;;;;;;;;;5054264;28;20037;-77
2022/04/16 03:18:50;;;;;;;15.20;12.10;;;;;;;;;;5051822;28;20052;-80
2022/04/16 03:21:16;;;;;;;14.80;12.18;;;;;;;;;;5056087;28;20430;-78
2022/04/16 03:23:42;;;;;;;17.98;13.15;;;;;;;;;;5053513;28;20041;-79
2022/04/16 03:26:08;;;;;;;15.65;12.57;;;;;;;;;;5054380;28;20037;-80
2022/04/16 03:28:36;;;;;;;13.95;12.48;;;;;;;;;;5053830;28;20036;-74
2022/04/16 03:31:03;;;;;;;15.45;12.98;;;;;;;;;;5053483;28;20029;-80
2022/04/16 03:33:31;;;;;;;14.80;12.63;;;;;;;;;;5051335;28;20021;-82
2022/04/16 03:35:57;;;;;;;15.02;12.68;;;;;;;;;;5053806;28;20029;-79
2022/04/16 03:38:26;;;;;;;14.98;12.48;;;;;;;;;;5053481;28;20028;-80
2022/04/16 03:40:52;;;;;;;16.02;12.77;;;;;;;;;;5053785;28;20044;-76
2022/04/16 03:43:26;;;;;;;15.18;12.57;;;;;;;;;;5053432;28;20025;-78
2022/04/16 03:45:52;;;;;;;19.25;13.48;;;;;;;;;;5036123;28;20041;-77
2022/04/16 03:48:18;;;;;;;15.98;12.30;;;;;;;;;;5051888;28;20052;-79
2022/04/16 03:50:44;;;;;;;16.30;12.68;;;;;;;;;;5052793;28;20087;-77
2022/04/16 03:53:10;;;;;;;15.52;12.60;;;;;;;;;;5052953;28;20029;-79
2022/04/16 04:01:06;;;;;;;16.05;12.98;;;;;;;;;;5048442;28;20036;-75
2022/04/16 04:03:32;;;;;;;17.73;13.45;;;;;;;;;;5050462;28;20071;-80
2022/04/16 04:06:00;;;;;;;16.88;12.30;;;;;;;;;;5053866;28;20123;-78
2022/04/16 04:08:26;;;;;;;18.38;11.85;;;;;;;;;;5053434;28;20033;-81
2022/04/16 04:10:53;;;;;;;18.80;12.73;;;;;;;;;;5053480;28;20094;-71
2022/04/16 04:13:19;;;;;;;15.73;11.85;;;;;;;;;;5045850;28;20099;-79
2022/04/16 04:15:45;;;;;;;18.25;13.07;;;;;;;;;;5051381;28;20048;-80
2022/04/16 04:18:12;;;;;;;15.07;11.38;;;;;;;;;;5048748;28;20037;-78
2022/04/16 04:20:38;;;;;;;16.23;11.43;;;;;;;;;;5052728;28;20029;-78
2022/04/16 04:23:04;;;;;;;14.10;11.73;;;;;;;;;;5052497;28;20045;-76
2022/04/16 04:25:32;;;;;;;15.73;12.32;;;;;;;;;;5060322;28;20025;-82
2022/04/16 04:27:58;;;;;;;15.88;11.90;;;;;;;;;;5057183;28;20039;-81
2022/04/16 04:30:25;;;;;;;15.57;11.35;;;;;;;;;;5050897;28;20028;-79
2022/04/16 04:32:51;;;;;;;16.17;11.98;;;;;;;;;;5050926;28;20478;-79
2022/04/16 04:35:17;;;;;;;15.77;11.68;;;;;;;;;;5051283;28;20075;-84
2022/04/16 04:37:43;;;;;;;15.00;11.35;;;;;;;;;;5042708;28;20089;-80
2022/04/16 04:40:09;;;;;;;18.88;11.48;;;;;;;;;;5051168;28;20032;-81
2022/04/16 04:42:36;;;;;;;13.10;10.93;;;;;;;;;;5036153;28;20029;-85
2022/04/16 04:45:11;;;;;;;12.55;11.02;;;;;;;;;;5049988;28;20037;-78
2022/04/16 04:47:38;;;;;;;17.70;11.43;;;;;;;;;;5049886;28;20052;-77
2022/04/16 04:50:06;;;;;;;14.23;10.63;;;;;;;;;;5033672;28;20029;-81
2022/04/16 04:52:32;;;;;;;17.17;11.45;;;;;;;;;;5033211;28;20475;-79
2022/04/16 04:54:59;;;;;;;13.25;10.25;;;;;;;;;;5048837;28;20118;-77
2022/04/16 04:57:27;;;;;;;12.43;10.35;;;;;;;;;;5048739;28;20055;-77
2022/04/16 04:59:53;;;;;;;11.85;10.13;;;;;;;;;;5047919;28;20017;-75
2022/04/16 05:02:19;;;;;;;13.88;10.00;;;;;;;;;;5052075;28;20532;-83
2022/04/16 05:04:46;;;;;;;11.93;10.07;;;;;;;;;;5034463;28;20033;-86
2022/04/16 05:07:14;;;;;;;12.43;10.07;;;;;;;;;;5035586;28;20083;-87
2022/04/16 05:09:40;;;;;;;11.80;10.57;;;;;;;;;;5033176;28;20044;-78
2022/04/16 05:12:07;;;;;;;13.23;10.50;;;;;;;;;;5049477;28;20024;-74
2022/04/16 05:14:33;;;;;;;15.48;10.43;;;;;;;;;;5049972;28;20056;-73
2022/04/16 05:16:59;;;;;;;13.13;10.13;;;;;;;;;;5051235;28;20363;-73
2022/04/16 05:19:25;;;;;;;12.63;9.77;;;;;;;;;;5052399;28;20426;-79
2022/04/16 05:21:51;;;;;;;12.57;10.10;;;;;;;;;;5045073;28;20468;-79
2022/04/16 05:24:17;;;;;;;16.35;10.23;;;;;;;;;;5043052;28;20048;-79
2022/04/16 05:26:43;;;;;;;13.00;10.10;;;;;;;;;;5049915;28;20136;-77
2022/04/16 05:29:10;;;;;;;14.85;10.05;;;;;;;;;;5051473;28;20021;-87
2022/04/16 05:31:36;;;;;;;11.00;9.80;;;;;;;;;;5035842;28;20106;-81
2022/04/16 05:36:48;;;;;;;14.43;10.77;;;;;;;;;;5053863;28;20517;-84
2022/04/16 05:39:14;;;;;;;15.88;11.48;;;;;;;;;;5035904;28;20037;-87
2022/04/16 05:41:40;;;;;;;13.68;11.63;;;;;;;;;;5055059;28;20048;-83
2022/04/16 05:44:06;;;;;;;14.40;11.35;;;;;;;;;;5036512;28;20483;-81
2022/04/16 05:46:32;;;;;;;12.20;10.90;;;;;;;;;;5036688;28;20102;-73
2022/04/16 05:48:59;;;;;;;14.13;11.35;;;;;;;;;;5052093;28;20025;-73
2022/04/16 05:51:25;;;;;;;13.02;11.40;;;;;;;;;;5034528;28;20094;-81
2022/04/16 05:53:52;;;;;;;12.77;11.13;;;;;;;;;;5037963;28;20500;-81
2022/04/16 05:56:18;;;;;;;14.07;11.85;;;;;;;;;;5054989;28;20383;-79
2022/04/16 05:58:45;;;;;;;16.13;12.25;;;;;;;;;;5051561;28;20032;-78
2022/04/16 06:01:11;;;;;;;12.57;11.27;;;;;;;;;;5055573;28;20025;-82
2022/04/16 06:03:41;;;;;;;15.10;12.50;;;;;;;;;;5054995;28;20025;-80
2022/04/16 06:06:07;;;;;;;14.10;11.52;;;;;;;;;;5055172;28;20114;-74
2022/04/16 06:08:33;;;;;;;13.75;11.52;;;;;;;;;;5054783;28;20035;-75
2022/04/16 06:11:00;;;;;;;13.27;11.05;;;;;;;;;;5054817;28;20064;-72
2022/04/16 06:13:26;;;;;;;15.52;11.75;;;;;;;;;;5054881;28;20025;-74
2022/04/16 06:15:52;;;;;;;15.05;11.75;;;;;;;;;;5055183;28;20021;-80
2022/04/16 06:18:18;;;;;;;13.85;11.52;;;;;;;;;;5054551;28;20111;-80
2022/04/16 06:20:44;;;;;;;14.05;11.80;;;;;;;;;;5058533;28;20024;-80
2022/04/16 06:23:10;;;;;;;13.55;11.88;;;;;;;;;;5033642;28;20122;-75
2022/04/16 06:25:36;;;;;;;14.20;11.82;;;;;;;;;;5047684;28;20043;-76
2022/04/16 06:28:03;;;;;;;17.48;13.43;;;;;;;;;;5031141;28;20041;-75
2022/04/16 06:30:29;;;;;;;14.98;12.65;;;;;;;;;;5053775;28;20078;-78
2022/04/16 06:32:56;;;;;;;14.73;12.77;;;;;;;;;;5050253;28;20025;-78
2022/04/16 06:35:22;;;;;;;15.02;13.38;;;;;;;;;;5050215;28;20101;-76
2022/04/16 06:37:48;;;;;;;13.63;12.23;;;;;;;;;;5048982;28;20059;-79
2022/04/16 06:40:14;;;;;;;16.42;13.25;;;;;;;;;;5055225;28;20040;-70
2022/04/16 06:42:41;;;;;;;14.98;12.63;;;;;;;;;;5057493;28;20032;-75
2022/04/16 06:45:08;;;;;;;15.77;12.70;;;;;;;;;;5052788;28;20118;-72
2022/04/16 06:47:34;;;;;;;15.95;13.68;;;;;;;;;;5052954;28;20068;-74
2022/04/16 06:50:00;;;;;;;13.98;12.50;;;;;;;;;;5053738;28;20493;-70
2022/04/16 06:52:26;;;;;;;16.10;13.07;;;;;;;;;;5053528;28;20033;-74
2022/04/16 06:54:52;;;;;;;15.90;13.32;;;;;;;;;;5054581;28;20017;-79
2022/04/16 06:57:18;;;;;;;14.85;12.52;;;;;;;;;;5049389;28;20037;-72
2022/04/16 06:59:44;;;;;;;16.98;13.30;;;;;;;;;;5050730;28;20049;-74
2022/04/16 07:02:11;;;;;;;14.65;12.77;;;;;;;;;;5047528;28;20105;-80
2022/04/16 07:04:37;;;;;;;14.98;13.00;;;;;;;;;;5051111;28;20029;-78
2022/04/16 07:07:04;;;;;;;14.98;13.35;;;;;;;;;;5052807;28;20615;-75
2022/04/16 07:09:30;;;;;;;16.15;13.32;;;;;;;;;;5050106;28;20117;-88
2022/04/16 07:11:56;;;;;;;14.98;12.80;;;;;;;;;;5048323;28;20029;-75
2022/04/16 07:14:22;;;;;;;15.10;12.50;;;;;;;;;;5047800;28;20031;-71
2022/04/16 07:16:49;;;;;;;15.40;12.88;;;;;;;;;;5048055;28;20044;-78
2022/04/16 07:19:15;;;;;;;15.40;12.55;;;;;;;;;;5057003;28;20029;-78
2022/04/16 07:21:41;;;;;;;14.80;12.65;;;;;;;;;;5048799;28;20022;-78
2022/04/16 07:24:07;;;;;;;17.02;12.55;;;;;;;;;;5025587;28;20053;-78
2022/04/16 07:26:33;;;;;;;16.08;12.40;;;;;;;;;;5030726;28;20036;-88
2022/04/16 07:28:59;;;;;;;14.43;12.00;;;;;;;;;;5027821;28;20033;-80
2022/04/16 07:31:25;;;;;;;15.77;11.90;;;;;;;;;;5018778;28;20036;-91
2022/04/16 07:33:51;;;;;;;20.45;15.20;;;;;;;;;;5014814;28;20037;-78
2022/04/16 07:36:18;;;;;;;16.67;14.82;;;;;;;;;;5022093;28;20022;-82
2022/04/16 07:38:44;;;;;;;22.00;17.83;;;;;;;;;;5017190;28;20168;-79
2022/04/16 07:41:10;;;;;;;21.05;17.25;;;;;;;;;;5015331;28;20042;-80
2022/04/16 07:43:36;;;;;;;20.13;17.48;;;;;;;;;;5019866;28;20051;-77
2022/04/16 07:46:03;;;;;;;18.58;15.70;;;;;;;;;;5018102;28;20411;-77
2022/04/16 07:48:29;;;;;;;17.33;14.05;;;;;;;;;;5017189;28;20069;-74
2022/04/16 07:50:55;;;;;;;17.13;14.27;;;;;;;;;;5023327;28;20034;-79
2022/04/16 07:53:22;;;;;;;16.92;12.43;;;;;;;;;;5030367;28;20030;-77
2022/04/16 07:55:48;;;;;;;20.73;18.25;;;;;;;;;;5028769;28;20029;-74
2022/04/16 07:58:14;;;;;;;16.23;14.02;;;;;;;;;;5032926;28;20041;-76
2022/04/16 08:00:40;;;;;;;16.25;12.65;;;;;;;;;;5024933;28;20438;-74
2022/04/16 08:03:07;;;;;;;18.08;13.60;;;;;;;;;;5031144;28;20546;-72
2022/04/16 08:05:33;;;;;;;36.65;32.35;;;;;;;;;;5029701;28;20076;-76
2022/04/16 08:07:59;;;;;;;23.80;20.70;;;;;;;;;;5030140;28;20021;-74
2022/04/16 08:10:25;;;;;;;15.93;14.20;;;;;;;;;;5032194;28;20029;-70
2022/04/16 08:12:51;;;;;;;17.23;14.23;;;;;;;;;;5032677;28;20368;-70
2022/04/16 08:15:17;;;;;;;14.95;12.98;;;;;;;;;;5033104;28;20429;-71
2022/04/16 08:17:43;;;;;;;16.35;13.30;;;;;;;;;;5032438;28;20116;-71
2022/04/16 08:20:10;;;;;;;16.10;13.50;;;;;;;;;;5037206;28;20032;-70
2022/04/16 08:22:38;;;;;;;17.63;14.68;;;;;;;;;;5035558;28;20037;-75
2022/04/16 08:27:49;;;;;;;17.95;12.48;;;;;;;;;;5052199;28;20112;-76
2022/04/16 08:30:16;;;;;;;14.25;12.20;;;;;;;;;;5052347;28;20040;-73
2022/04/16 08:32:42;;;;;;;15.82;12.27;;;;;;;;;;5052215;28;20055;-72
2022/04/16 08:35:12;;;;;;;13.98;11.75;;;;;;;;;;5051751;28;20028;-70
2022/04/16 08:37:38;;;;;;;15.48;11.85;;;;;;;;;;5052342;28;20032;-73
2022/04/16 08:40:05;;;;;;;15.13;11.52;;;;;;;;;;5053567;28;20127;-72
2022/04/16 08:42:33;;;;;;;14.43;10.95;;;;;;;;;;5045671;28;20025;-75
2022/04/16 08:44:59;;;;;;;14.15;10.77;;;;;;;;;;5052006;28;20387;-71
2022/04/16 08:47:25;;;;;;;13.90;10.27;;;;;;;;;;5053374;28;20116;-71
2022/04/16 08:49:51;;;;;;;12.32;10.73;;;;;;;;;;5051854;28;20009;-71
2022/04/16 08:52:19;;;;;;;14.60;10.02;;;;;;;;;;5045819;28;20038;-73
2022/04/16 08:54:45;;;;;;;10.40;9.30;;;;;;;;;;5050330;28;20371;-76
2022/04/16 08:57:11;;;;;;;12.45;9.43;;;;;;;;;;5045940;28;20068;-89
2022/04/16 08:59:38;;;;;;;10.18;8.88;;;;;;;;;;5047994;28;20033;-76
2022/04/16 09:02:05;;;;;;;10.15;8.45;;;;;;;;;;5049136;28;20124;-74
2022/04/16 09:04:31;;;;;;;11.68;9.32;;;;;;;;;;5024261;28;20044;-74
2022/04/16 09:06:59;;;;;;;15.52;8.57;;;;;;;;;;5052317;28;20032;-73
2022/04/16 09:09:25;;;;;;;10.52;7.90;;;;;;;;;;5051872;28;20033;-81
2022/04/16 09:11:52;;;;;;;11.45;8.02;;;;;;;;;;5053739;28;20096;-75
2022/04/16 09:14:18;;;;;;;12.25;7.97;;;;;;;;;;5053153;28;20033;-75
2022/04/16 09:16:44;;;;;;;8.68;7.18;;;;;;;;;;5055369;28;20021;-82
2022/04/16 09:19:17;;;;;;;8.88;7.20;;;;;;;;;;5055079;28;20048;-80
2022/04/16 09:21:43;;;;;;;10.93;7.10;;;;;;;;;;5053960;28;20017;-85
2022/04/16 09:24:12;;;;;;;8.90;6.55;;;;;;;;;;5044907;28;20322;-87
2022/04/16 09:26:39;;;;;;;7.90;6.85;;;;;;;;;;5053499;28;20059;-79
2022/04/16 09:29:12;;;;;;;11.65;7.97;;;;;;;;;;5054946;28;20037;-83
2022/04/16 09:31:39;;;;;;;9.75;6.45;;;;;;;;;;5053719;28;20339;-87
2022/04/16 09:34:06;;;;;;;8.48;6.40;;;;;;;;;;5056045;28;20051;-86
2022/04/16 09:36:33;;;;;;;8.25;6.65;;;;;;;;;;5053935;28;20040;-87
2022/04/16 09:39:06;;;;;;;10.02;7.40;;;;;;;;;;5056297;28;20044;-84
2022/04/16 09:41:33;;;;;;;7.78;5.68;;;;;;;;;;5054969;28;20029;-71
2022/04/16 09:43:59;;;;;;;11.30;5.95;;;;;;;;;;5055713;28;20487;-87
2022/04/16 09:46:29;;;;;;;11.10;5.85;;;;;;;;;;5055862;28;20032;-84
2022/04/16 09:49:03;;;;;;;7.53;5.72;;;;;;;;;;5058409;28;20076;-85
2022/04/16 09:51:29;;;;;;;;;;;;;;;;;;5054747;28;20031;-73
2022/04/16 09:53:56;;;;;;;11.88;9.05;;;;;;;;;;5054615;28;19916;-79
2022/04/16 09:56:23;;;;;;;7.70;5.88;;;;;;;;;;5051796;28;20053;-78
2022/04/16 09:58:53;;;;;;;10.95;6.47;;;;;;;;;;5055068;28;20087;-80
2022/04/16 10:01:22;;;;;;;5.85;5.03;;;;;;;;;;5053020;28;20033;-77
2022/04/16 10:03:48;;;;;;;6.93;5.43;;;;;;;;;;5049542;28;20032;-76
2022/04/16 10:06:15;;;;;;;17.80;6.30;;;;;;;;;;5041681;28;20030;-80
2022/04/16 10:08:41;;;;;;;7.75;5.20;;;;;;;;;;5058228;28;20060;-73
2022/04/16 10:11:08;;;;;;;8.85;5.07;;;;;;;;;;5055355;28;20070;-76
2022/04/16 10:13:45;;;;;;;6.20;4.88;;;;;;;;;;5033892;28;20037;-78
2022/04/16 10:16:14;;;;;;;12.75;5.97;;;;;;;;;;5051778;28;20372;-82
2022/04/16 10:18:40;;;;;;;8.25;4.80;;;;;;;;;;5035580;28;20044;-78
2022/04/16 10:21:14;;;;;;;6.63;4.90;;;;;;;;;;5048841;28;20031;-79
2022/04/16 10:23:41;;;;;;;6.80;4.70;;;;;;;;;;5054287;28;20077;-80
2022/04/16 10:26:14;;;;;;;11.05;5.15;;;;;;;;;;5051087;28;20167;-81
2022/04/16 10:28:40;;;;;;;;;;;;;;;;;;5054572;28;20087;-76
2022/04/16 10:31:07;;;;;;;7.32;5.20;;;;;;;;;;5054922;28;19908;-79
2022/04/16 10:33:33;;;;;;;8.88;5.18;;;;;;;;;;5054584;28;20021;-79
2022/04/16 10:36:03;;;;;;;7.20;5.35;;;;;;;;;;5053901;28;20040;-84
2022/04/16 10:38:37;;;;;;;11.57;5.88;;;;;;;;;;5054673;28;20541;-75
2022/04/16 10:41:03;;;;;;;;;;;;;;;;;;5053169;28;20021;-81
2022/04/16 10:43:30;;;;;;;6.63;5.80;;;;;;;;;;5053229;28;19958;-75
2022/04/16 10:46:06;;;;;;;7.07;5.28;;;;;;;;;;5054314;28;20424;-80
2022/04/16 10:48:33;;;;;;;7.40;5.18;;;;;;;;;;5054155;28;20024;-79
2022/04/16 10:51:00;;;;;;;7.43;4.78;;;;;;;;;;5060679;28;20071;-82
2022/04/16 10:53:32;;;;;;;7.60;5.20;;;;;;;;;;5054185;28;20426;-79
2022/04/16 10:56:11;;;;;;;5.93;4.93;;;;;;;;;;5053657;28;20502;-82
2022/04/16 10:58:39;;;;;;;6.75;4.88;;;;;;;;;;5054993;28;20036;-83
2022/04/16 11:01:07;;;;;;;7.22;4.82;;;;;;;;;;5054646;28;20029;-82
2022/04/16 11:03:36;;;;;;;6.65;4.25;;;;;;;;;;5054126;28;20494;-84
2022/04/16 11:06:03;;;;;;;8.48;4.45;;;;;;;;;;5054540;28;20029;-75
2022/04/16 11:08:29;;;;;;;6.63;5.00;;;;;;;;;;5052911;28;20112;-81
2022/04/16 11:10:58;;;;;;;6.10;4.93;;;;;;;;;;5053900;28;20386;-79
2022/04/16 11:13:26;;;;;;;6.72;5.00;;;;;;;;;;5053536;28;20075;-80
2022/04/16 11:15:52;;;;;;;8.05;5.03;;;;;;;;;;5054121;28;20379;-83
2022/04/16 11:18:20;;;;;;;6.00;5.07;;;;;;;;;;5050339;28;20033;-74
2022/04/16 11:20:56;;;;;;;9.15;4.40;;;;;;;;;;5057602;28;20143;-78
2022/04/16 11:23:26;;;;;;;9.32;4.68;;;;;;;;;;5053684;28;20141;-78
2022/04/16 11:34:17;;;;;;;15.88;5.93;;;;;;;;;;5043029;28;20037;-82
2022/04/16 11:36:52;;;;;;;28.58;16.38;;;;;;;;;;5039374;28;20017;-83
2022/04/16 11:39:19;;;;;;;41.67;27.27;;;;;;;;;;5047473;28;20040;-84
2022/04/16 11:41:56;;;;;;;21.30;14.15;;;;;;;;;;5053331;28;20029;-81
2022/04/16 11:44:50;;;;;;;32.85;18.42;;;;;;;;;;5053282;28;20100;-81
2022/04/16 11:47:27;;;;;;;13.23;7.40;;;;;;;;;;5050430;28;20040;-84
2022/04/16 11:50:01;;;;;;;12.20;7.15;;;;;;;;;;5052686;28;20498;-83
2022/04/16 11:52:30;;;;;;;7.35;4.85;;;;;;;;;;5052896;28;20386;-84
2022/04/16 11:55:16;;;;;;;6.80;4.65;;;;;;;;;;5053704;28;20017;-80
2022/04/16 11:57:52;;;;;;;8.68;4.90;;;;;;;;;;5053395;28;20059;-83
2022/04/16 12:00:19;;;;;;;7.20;4.45;;;;;;;;;;5052743;28;20032;-82
2022/04/16 12:02:47;;;;;;;8.93;4.63;;;;;;;;;;5052471;28;20029;-84
2022/04/16 12:05:14;;;;;;;10.35;4.25;;;;;;;;;;5053002;28;20100;-84
2022/04/16 12:07:41;;;;;;;8.40;4.65;;;;;;;;;;5052566;28;20028;-84
2022/04/16 12:10:07;;;;;;;10.60;5.65;;;;;;;;;;5053358;28;20086;-81
2022/04/16 12:12:44;;;;;;;10.40;5.85;;;;;;;;;;5051329;28;20053;-84
2022/04/16 12:15:10;;;;;;;8.10;4.65;;;;;;;;;;5036141;28;20032;-85
2022/04/16 12:17:39;;;;;;;10.80;6.47;;;;;;;;;;5053693;28;20493;-86
2022/04/16 12:20:07;;;;;;;8.52;5.38;;;;;;;;;;5055105;28;20446;-83
2022/04/16 12:22:49;;;;;;;7.70;5.40;;;;;;;;;;5052899;28;20056;-86
2022/04/16 12:25:16;;;;;;;12.30;6.38;;;;;;;;;;5053707;28;20712;-81
2022/04/16 12:27:49;;;;;;;8.82;5.53;;;;;;;;;;5052350;28;20382;-86
2022/04/16 12:30:20;;;;;;;7.65;5.50;;;;;;;;;;5053343;28;20028;-85
2022/04/16 12:32:58;;;;;;;10.20;5.60;;;;;;;;;;5053249;28;20166;-84
2022/04/16 12:35:24;;;;;;;11.82;6.50;;;;;;;;;;5052559;28;20487;-86
2022/04/16 12:37:54;;;;;;;17.40;6.28;;;;;;;;;;5051642;28;20124;-89
2022/04/16 12:40:20;;;;;;;10.70;6.22;;;;;;;;;;5034604;28;20036;-78
2022/04/16 12:42:46;;;;;;;7.57;6.18;;;;;;;;;;5034764;28;20032;-77
2022/04/16 12:45:12;;;;;;;12.07;6.32;;;;;;;;;;5034472;28;20033;-80
2022/04/16 12:47:38;;;;;;;8.13;6.50;;;;;;;;;;5052294;28;20540;-86
2022/04/16 12:50:05;;;;;;;7.55;6.15;;;;;;;;;;5052580;28;20111;-81
2022/04/16 12:52:31;;;;;;;13.77;6.70;;;;;;;;;;5051356;28;20086;-77
2022/04/16 12:54:57;;;;;;;7.28;6.22;;;;;;;;;;5046803;28;20471;-84
2022/04/16 12:57:23;;;;;;;9.90;6.07;;;;;;;;;;5052739;28;20119;-88
2022/04/16 12:59:49;;;;;;;7.47;6.07;;;;;;;;;;5052900;28;20024;-90
2022/04/16 13:02:15;;;;;;;26.08;15.23;;;;;;;;;;5050604;28;20049;-84
2022/04/16 13:04:41;;;;;;;10.05;7.15;;;;;;;;;;5052003;28;20103;-76
2022/04/16 13:07:07;;;;;;;11.32;8.00;;;;;;;;;;5052138;28;20108;-88
2022/04/16 13:09:33;;;;;;;18.60;7.05;;;;;;;;;;5052159;28;20091;-79
2022/04/16 13:11:59;;;;;;;10.25;6.80;;;;;;;;;;5052265;28;20025;-78
2022/04/16 13:14:25;;;;;;;12.57;7.00;;;;;;;;;;5054829;28;20055;-82
2022/04/16 13:16:51;;;;;;;10.75;7.70;;;;;;;;;;5051351;28;20028;-80
2022/04/16 13:19:17;;;;;;;10.88;7.50;;;;;;;;;;5052986;28;20025;-73
2022/04/16 13:21:44;;;;;;;11.82;7.82;;;;;;;;;;5046064;28;20540;-71
2022/04/16 13:24:15;;;;;;;8.13;6.90;;;;;;;;;;5050102;28;21940;-75
2022/04/16 13:26:43;;;;;;;9.82;6.97;;;;;;;;;;5051709;28;20029;-72
2022/04/16 13:29:09;;;;;;;8.38;6.93;;;;;;;;;;5052120;28;20025;-71
2022/04/16 13:31:36;;;;;;;10.40;7.40;;;;;;;;;;5051638;28;20028;-82
2022/04/16 13:34:04;;;;;;;14.45;7.90;;;;;;;;;;5047268;28;20022;-87
2022/04/16 13:36:31;;;;;;;12.23;9.50;;;;;;;;;;5051753;28;20055;-73
2022/04/16 13:38:57;;;;;;;10.95;7.18;;;;;;;;;;5033676;28;20136;-82
2022/04/16 13:41:38;;;;;;;13.85;7.75;;;;;;;;;;5051716;28;20032;-83
2022/04/16 13:44:10;;;;;;;10.35;7.55;;;;;;;;;;5051843;28;20048;-89
2022/04/16 13:46:37;;;;;;;7.80;6.85;;;;;;;;;;5049202;28;20037;-92
2022/04/16 13:49:03;;;;;;;9.02;6.45;;;;;;;;;;5052483;28;20120;-88
2022/04/16 13:51:31;;;;;;;11.02;7.65;;;;;;;;;;5055847;28;20025;-89
2022/04/16 13:53:57;;;;;;;12.20;6.63;;;;;;;;;;5055725;28;20056;-79
2022/04/16 13:56:23;;;;;;;11.40;7.47;;;;;;;;;;5054741;28;20558;-74
2022/04/16 13:58:49;;;;;;;13.80;7.50;;;;;;;;;;5055198;28;20095;-80
2022/04/16 14:01:17;;;;;;;10.95;8.00;;;;;;;;;;5051198;28;20444;-81
2022/04/16 14:03:48;;;;;;;9.63;7.88;;;;;;;;;;5051048;28;20096;-80
2022/04/16 14:06:15;;;;;;;8.10;7.30;;;;;;;;;;5044711;28;20025;-78
2022/04/16 14:08:41;;;;;;;10.30;7.18;;;;;;;;;;5054316;28;20033;-82
2022/04/16 14:11:08;;;;;;;9.93;7.38;;;;;;;;;;5054732;28;20021;-83
2022/04/16 14:13:34;;;;;;;9.60;8.20;;;;;;;;;;5055284;28;20386;-84
2022/04/16 14:16:02;;;;;;;11.18;8.15;;;;;;;;;;5040245;28;20429;-82
2022/04/16 14:18:28;;;;;;;11.10;8.10;;;;;;;;;;5025958;28;20037;-82
2022/04/16 14:20:54;;;;;;;15.27;8.00;;;;;;;;;;5051591;28;20013;-77
2022/04/16 14:23:21;;;;;;;18.58;10.20;;;;;;;;;;5036551;28;20437;-82
2022/04/16 14:25:47;;;;;;;16.60;10.40;;;;;;;;;;5055042;28;20096;-84
2022/04/16 14:28:14;;;;;;;14.40;8.95;;;;;;;;;;5055270;28;20056;-82
2022/04/16 14:30:40;;;;;;;13.93;8.60;;;;;;;;;;5045297;28;20032;-82
2022/04/16 14:33:07;;;;;;;7.43;6.28;;;;;;;;;;5054771;28;20031;-80
2022/04/16 14:35:33;;;;;;;9.68;6.72;;;;;;;;;;5055058;28;20395;-82
2022/04/16 14:37:59;;;;;;;7.32;6.35;;;;;;;;;;5053988;28;20536;-81
2022/04/16 14:40:25;;;;;;;7.20;6.18;;;;;;;;;;5044315;28;20079;-80
2022/04/16 14:42:52;;;;;;;13.65;7.35;;;;;;;;;;5053255;28;20539;-83
2022/04/16 14:45:18;;;;;;;14.90;7.35;;;;;;;;;;5051308;28;20029;-81
2022/04/16 14:47:45;;;;;;;13.02;8.30;;;;;;;;;;5049039;28;20029;-76
2022/04/16 14:50:14;;;;;;;11.40;8.60;;;;;;;;;;5053419;28;20024;-80
2022/04/16 14:52:40;;;;;;;10.93;8.30;;;;;;;;;;5053925;28;20025;-82